Virtual Norwegian is not affiliated with Norwegian Air Shuttle in any way.
If you are looking for the real "Norwegian", or you wish to book Norwegian flights, please visit Norwegian.com


We use cookies to ensure you get the best experience on our website.   ACCEPT

LPPT - LIS - Lisbon (Lisbon)

General Info Alternate Airport
ICAO: LPPT Elevation: 374 ft ICAO: LPFR
IATA: LIS Country: Portugal IATA: FAO
City: Lisbon Charts: Log in to view charts City: Faro
Name: Lisbon Hub: No Name Faro
General Info
ICAO: LPPT
IATA: LIS
City: Lisbon
Name: Lisbon
Elevation: 374 ft
Country: Portugal
Charts: Log in to view charts
Hub: No
 
Alternate Airport
ICAO: LPFR
IATA: FAO
City: Faro
Name: Faro

Weather
220830Z 32008KT 290V350 9999 FEW020 18/13 Q1018
Weather
220830Z 32008KT 290V350 9999 FEW020 18/13 Q1018

Runway Info
03
Length ILS/LOC Course
3805 m 109.10 027
17
Length ILS/LOC Heading
2304 m N/A 168
21
Length ILS/LOC Course
3805 m 109.50 207
35
Length ILS/LOC Heading
2304 m N/A 348

NOTAMs
NOTAMs currently unavailable.
NOTAMs
NOTAMs currently unavailable

Route map
Airport
Airport (hub)